Pagrindinis puslapis
METAR-TAF:

METAR-TAF

Oro uostai :

Loei, Tailandas

platuma: 17-27N, ilguma: 101-44E, Aukštis: 253 m

Dabartinis oras

Ataskaita buvo paskelbta 3 valandos ir 50 minutes, ne 12:00 UTC
Ramus vėjas
Temperatūra 31°C
Drėgmė 38%
Slėgis 1006 hPa
Matomumas: 4000 m
migla

METAR: VTUL 311200Z 00000KT 4000 HZ NSC 31/15 Q1006 NOSIG

Laikas: 22:50 (15:50 UTC)

Prognozė

Ataskaita buvo paskelbta 4 valandos ir 50 minutes, ne 11:00 UTC
Prognozė galioja nuo 31 metu 12 UTC su 01 metu 12 UTC
Vėjas 4 kt iš Pietų/Pietvakarių
Matomumas: 6000 m
Tapsmas
nuo 31 metu 21 UTC su 31 metu 23 UTC
Matomumas: 3000 m
rūkana
Tapsmas
nuo 01 metu 02 UTC su 01 metu 04 UTC
Matomumas: 5000 m
migla
Tapsmas
nuo 01 metu 06 UTC su 01 metu 08 UTC
Matomumas: 7000 m
Mažai debesys ne aukštis 3000 ft

TAF: VTUL 311100Z 3112/0112 20004KT 6000 NSC BECMG 3121/3123 3000 BR BECMG 0102/0104 5000 HZ BECMG 0106/0108 7000 NSW FEW030

Orai ataskaitas ir orų prognozės (METAR, TAF).

turimą stotys yra geltonos ir raudonos taškus žemėlapyje.

Perkelti pele per norėdami pamatyti stoties vardą.

Tada spustelėkite, norėdami matyti oro stebėjimo ir prognozės.

Norėdami pakeisti žemėlapį: spustelėkite ant žalios mygtukų su juodo kryžiaus žemyn,; žalią mygtuką su brūkšneliu, jei norite nutolinti; arba žalių rodyklių gretimoms žemėlapius.


METAR-TAF: